createdAt,value
2016-11-30T00:00:29.206Z,0
2016-11-30T00:01:29.247Z,0
2016-11-30T00:02:29.288Z,0
2016-11-30T00:03:29.342Z,0
2016-11-30T00:04:29.397Z,0
2016-11-30T00:05:29.455Z,0
2016-11-30T00:06:29.529Z,0
2016-11-30T00:07:29.565Z,0
2016-11-30T00:08:29.657Z,0
2016-11-30T00:09:29.694Z,0
2016-11-30T00:10:29.735Z,0
2016-11-30T00:11:29.788Z,0
2016-11-30T00:12:29.861Z,0
2016-11-30T00:13:29.932Z,0
2016-11-30T00:14:29.959Z,0
2016-11-30T00:15:30.062Z,0
2016-11-30T00:16:30.091Z,0
2016-11-30T00:17:30.126Z,0
2016-11-30T00:18:30.221Z,0
2016-11-30T00:19:30.257Z,0
2016-11-30T00:20:30.328Z,0
2016-11-30T00:21:30.372Z,0
2016-11-30T00:22:30.431Z,0
2016-11-30T00:23:30.486Z,0
2016-11-30T00:24:30.518Z,0
2016-11-30T00:25:30.596Z,0
2016-11-30T00:26:30.674Z,0
2016-11-30T00:27:30.705Z,0
2016-11-30T00:28:30.773Z,0
2016-11-30T00:29:30.823Z,0
2016-11-30T00:30:30.861Z,0
2016-11-30T00:31:30.926Z,0
2016-11-30T00:32:30.979Z,0
2016-11-30T00:33:31.055Z,0
2016-11-30T00:34:31.106Z,0
2016-11-30T00:35:31.163Z,0
2016-11-30T00:36:31.512Z,0
2016-11-30T00:37:31.245Z,0
2016-11-30T00:38:31.315Z,0
2016-11-30T00:39:31.359Z,0
2016-11-30T00:40:31.417Z,0
2016-11-30T00:41:31.482Z,0
2016-11-30T00:42:31.545Z,0
2016-11-30T00:43:31.595Z,0
2016-11-30T00:44:31.657Z,0
2016-11-30T00:45:31.714Z,0
2016-11-30T00:46:31.761Z,0
2016-11-30T00:47:31.837Z,0
2016-11-30T00:48:31.883Z,0
2016-11-30T00:49:31.925Z,0
2016-11-30T00:50:31.986Z,0
2016-11-30T00:51:32.036Z,0
2016-11-30T00:52:32.091Z,0
2016-11-30T00:53:32.141Z,0
2016-11-30T00:54:32.204Z,0
2016-11-30T00:55:32.256Z,0
2016-11-30T00:56:32.330Z,0
2016-11-30T00:57:32.384Z,0
2016-11-30T00:58:32.434Z,0
2016-11-30T00:59:32.507Z,0
2016-11-30T01:00:32.561Z,0
2016-11-30T01:01:32.605Z,0
2016-11-30T01:02:32.646Z,0
2016-11-30T01:03:32.720Z,0
2016-11-30T01:04:32.763Z,0
2016-11-30T01:05:32.832Z,0
2016-11-30T01:06:32.898Z,0
2016-11-30T01:07:32.938Z,0
2016-11-30T01:08:33.003Z,0
2016-11-30T01:09:33.064Z,0
2016-11-30T01:10:33.106Z,0
2016-11-30T01:11:33.155Z,0
2016-11-30T01:12:33.234Z,0
2016-11-30T01:13:33.287Z,0
2016-11-30T01:14:33.330Z,0
2016-11-30T01:15:33.406Z,0
2016-11-30T01:16:33.455Z,0
2016-11-30T01:17:33.505Z,0
2016-11-30T01:18:33.561Z,0
2016-11-30T01:19:33.601Z,0
2016-11-30T01:20:33.674Z,0
2016-11-30T01:21:33.730Z,0
2016-11-30T01:22:33.764Z,0
2016-11-30T01:23:33.858Z,0
2016-11-30T01:24:34.190Z,0
2016-11-30T01:25:33.960Z,0
2016-11-30T01:26:34.022Z,0
2016-11-30T01:27:34.043Z,0
2016-11-30T01:28:34.104Z,0
2016-11-30T01:29:34.190Z,0
2016-11-30T01:30:34.231Z,0
2016-11-30T01:31:34.290Z,0
2016-11-30T01:32:34.343Z,0
2016-11-30T01:33:34.399Z,0
2016-11-30T01:34:34.446Z,0
2016-11-30T01:35:34.531Z,0
2016-11-30T01:36:34.582Z,0
2016-11-30T01:37:34.621Z,0
2016-11-30T01:38:34.681Z,0
2016-11-30T01:39:34.737Z,0
2016-11-30T01:40:34.784Z,0
2016-11-30T01:41:34.854Z,0
2016-11-30T01:42:34.905Z,0
2016-11-30T01:43:34.949Z,0
2016-11-30T01:44:34.995Z,0
2016-11-30T01:45:35.060Z,0
2016-11-30T01:46:35.131Z,0
2016-11-30T01:47:35.182Z,0
2016-11-30T01:48:35.239Z,0
2016-11-30T01:49:35.293Z,0
2016-11-30T01:50:35.376Z,0
2016-11-30T01:51:35.386Z,0
2016-11-30T01:52:35.459Z,0
2016-11-30T01:53:35.515Z,0
2016-11-30T01:54:35.580Z,0
2016-11-30T01:55:35.634Z,0
2016-11-30T01:56:35.669Z,0
2016-11-30T01:57:35.747Z,0
2016-11-30T01:58:35.803Z,0
2016-11-30T01:59:35.868Z,0
2016-11-30T02:00:35.927Z,0
2016-11-30T02:01:35.956Z,0
2016-11-30T02:02:36.015Z,0
2016-11-30T02:03:36.074Z,0
2016-11-30T02:04:36.164Z,0
2016-11-30T02:05:36.174Z,0
2016-11-30T02:06:36.245Z,0
2016-11-30T02:07:36.308Z,0
2016-11-30T02:08:36.352Z,0
2016-11-30T02:09:36.407Z,0
2016-11-30T02:10:36.479Z,0
2016-11-30T02:11:36.504Z,0
2016-11-30T02:12:36.592Z,0
2016-11-30T02:13:36.627Z,0
2016-11-30T02:14:36.701Z,0
2016-11-30T02:15:36.753Z,0
2016-11-30T02:16:36.808Z,0
2016-11-30T02:17:36.857Z,0
2016-11-30T02:18:36.909Z,0
2016-11-30T02:19:36.982Z,0
2016-11-30T02:20:37.037Z,0
2016-11-30T02:21:37.062Z,0
2016-11-30T02:22:37.154Z,0
2016-11-30T02:23:37.197Z,0
2016-11-30T02:24:37.265Z,0
2016-11-30T02:25:37.306Z,0
2016-11-30T02:26:37.364Z,0
2016-11-30T02:27:37.431Z,0
2016-11-30T02:28:37.474Z,0
2016-11-30T02:29:37.516Z,0
2016-11-30T02:30:37.594Z,0
2016-11-30T02:31:37.645Z,0
2016-11-30T02:32:37.694Z,0
2016-11-30T02:33:37.735Z,0
2016-11-30T02:34:37.826Z,0
2016-11-30T02:35:37.884Z,0
2016-11-30T02:36:37.931Z,0
2016-11-30T02:37:37.993Z,0
2016-11-30T02:38:38.050Z,0
2016-11-30T02:39:38.077Z,0
2016-11-30T02:40:38.140Z,0
2016-11-30T02:41:38.187Z,0
2016-11-30T02:42:38.267Z,0
2016-11-30T02:43:38.295Z,0
2016-11-30T02:44:38.375Z,0
2016-11-30T02:45:38.420Z,0
2016-11-30T02:46:38.463Z,0
2016-11-30T02:47:38.538Z,0
2016-11-30T02:48:38.593Z,0
2016-11-30T02:49:38.646Z,0
2016-11-30T02:50:38.684Z,0
2016-11-30T02:51:38.740Z,0
2016-11-30T02:52:38.815Z,0
2016-11-30T02:53:38.859Z,0
2016-11-30T02:54:38.921Z,0
2016-11-30T02:55:38.978Z,0
2016-11-30T02:56:39.049Z,0
2016-11-30T02:57:39.095Z,0
2016-11-30T02:58:39.152Z,0
2016-11-30T02:59:39.207Z,0
2016-11-30T03:00:39.250Z,0
2016-11-30T03:01:39.336Z,0
2016-11-30T03:02:39.354Z,0
2016-11-30T03:03:39.433Z,0
2016-11-30T03:04:39.489Z,0
2016-11-30T03:05:39.557Z,0
2016-11-30T03:06:39.593Z,0
2016-11-30T03:07:39.669Z,0
2016-11-30T03:08:39.728Z,0
2016-11-30T03:09:39.757Z,0
2016-11-30T03:10:39.814Z,0
2016-11-30T03:11:39.892Z,0
2016-11-30T03:12:39.930Z,0
2016-11-30T03:13:39.993Z,0
2016-11-30T03:14:40.048Z,0
2016-11-30T03:15:40.110Z,0
2016-11-30T03:16:40.154Z,0
2016-11-30T03:17:40.223Z,0
2016-11-30T03:18:40.253Z,0
2016-11-30T03:19:40.329Z,0
2016-11-30T03:20:40.377Z,0
2016-11-30T03:21:40.432Z,0
2016-11-30T03:22:40.490Z,0
2016-11-30T03:23:40.557Z,0
2016-11-30T03:24:40.606Z,0
2016-11-30T03:25:40.660Z,0
2016-11-30T03:26:40.715Z,0
2016-11-30T03:27:40.777Z,0
2016-11-30T03:28:40.824Z,0
2016-11-30T03:29:40.868Z,0
2016-11-30T03:30:40.947Z,0
2016-11-30T03:31:40.996Z,0
2016-11-30T03:32:41.064Z,0
2016-11-30T03:33:41.092Z,0
2016-11-30T03:34:41.161Z,0
2016-11-30T03:35:41.238Z,0
2016-11-30T03:36:41.274Z,0
2016-11-30T03:37:41.332Z,0
2016-11-30T03:38:41.393Z,0
2016-11-30T03:39:41.436Z,0
2016-11-30T03:40:41.506Z,0
2016-11-30T03:42:07.819Z,0
2016-11-30T03:42:41.676Z,0
2016-11-30T03:43:41.728Z,0
2016-11-30T03:44:41.786Z,0
2016-11-30T03:45:41.843Z,0
2016-11-30T03:46:41.897Z,0
2016-11-30T03:47:42.275Z,0
2016-11-30T03:48:42.012Z,0
2016-11-30T03:49:42.069Z,0
2016-11-30T03:50:42.124Z,0
2016-11-30T03:51:42.184Z,0
2016-11-30T03:52:42.236Z,0
2016-11-30T03:53:42.294Z,0
2016-11-30T03:54:42.348Z,0
2016-11-30T03:55:42.406Z,0
2016-11-30T03:56:42.461Z,0
2016-11-30T03:57:42.519Z,0
2016-11-30T03:58:42.578Z,0
2016-11-30T03:59:42.632Z,0
2016-11-30T04:00:42.688Z,0
2016-11-30T04:01:42.747Z,0
2016-11-30T04:02:42.800Z,0
2016-11-30T04:03:42.814Z,0
2016-11-30T04:04:42.847Z,0
2016-11-30T04:05:42.901Z,0
2016-11-30T04:06:42.975Z,0
2016-11-30T04:07:43.042Z,0
2016-11-30T04:08:43.088Z,0
2016-11-30T04:09:43.124Z,0
2016-11-30T04:10:43.180Z,0
2016-11-30T04:11:43.248Z,0
2016-11-30T04:12:43.303Z,0
2016-11-30T04:13:43.361Z,0
2016-11-30T04:14:43.406Z,0
2016-11-30T04:15:43.473Z,0
2016-11-30T04:16:43.516Z,0
2016-11-30T04:17:43.579Z,0
2016-11-30T04:18:43.646Z,0
2016-11-30T04:19:43.689Z,0
2016-11-30T04:20:43.749Z,0
2016-11-30T04:21:43.798Z,0
2016-11-30T04:22:43.853Z,0
2016-11-30T04:23:43.925Z,0
2016-11-30T04:24:43.990Z,0
2016-11-30T04:25:44.044Z,0
2016-11-30T04:26:44.103Z,0
2016-11-30T04:27:44.157Z,0
2016-11-30T04:28:44.223Z,0
2016-11-30T04:29:44.269Z,0
2016-11-30T04:30:44.322Z,0
2016-11-30T04:31:44.370Z,0
2016-11-30T04:32:44.448Z,0
2016-11-30T04:33:44.493Z,0
2016-11-30T04:34:44.559Z,0
2016-11-30T04:35:44.614Z,0
2016-11-30T04:36:44.680Z,0
2016-11-30T04:37:44.712Z,0
2016-11-30T04:38:44.780Z,0
2016-11-30T04:39:44.831Z,0
2016-11-30T04:40:44.879Z,0
2016-11-30T04:41:44.946Z,0
2016-11-30T04:42:44.999Z,0
2016-11-30T04:43:45.053Z,0
2016-11-30T04:44:45.098Z,0
2016-11-30T04:45:45.157Z,0
2016-11-30T04:46:45.240Z,0
2016-11-30T04:47:45.271Z,0
2016-11-30T04:48:45.338Z,0
2016-11-30T04:49:45.414Z,0
2016-11-30T04:50:45.467Z,0
2016-11-30T04:51:45.525Z,0
2016-11-30T04:52:45.563Z,0
2016-11-30T04:53:45.611Z,0
2016-11-30T04:54:45.688Z,0
2016-11-30T04:55:45.726Z,0
2016-11-30T04:56:45.793Z,0
2016-11-30T04:57:45.866Z,0
2016-11-30T04:58:45.931Z,0
2016-11-30T04:59:45.954Z,0
2016-11-30T05:00:46.009Z,0
2016-11-30T05:01:46.080Z,0
2016-11-30T05:02:46.158Z,0
2016-11-30T05:03:46.193Z,0
2016-11-30T05:04:46.246Z,0
2016-11-30T05:05:46.322Z,0
2016-11-30T05:06:46.357Z,0
2016-11-30T05:07:46.436Z,0
2016-11-30T05:08:46.486Z,0
2016-11-30T05:09:46.544Z,0
2016-11-30T05:10:46.606Z,0
2016-11-30T05:11:46.643Z,0
2016-11-30T05:12:46.696Z,0
2016-11-30T05:13:46.755Z,0
2016-11-30T05:14:46.824Z,0
2016-11-30T05:15:46.878Z,0
2016-11-30T05:16:46.944Z,0
2016-11-30T05:17:46.971Z,0
2016-11-30T05:18:47.053Z,0
2016-11-30T05:19:47.107Z,0
2016-11-30T05:20:47.180Z,0
2016-11-30T05:21:47.204Z,0
2016-11-30T05:22:47.286Z,0
2016-11-30T05:23:47.327Z,0
2016-11-30T05:24:47.390Z,0
2016-11-30T05:25:47.446Z,0
2016-11-30T05:26:47.503Z,0
2016-11-30T05:27:47.553Z,0
2016-11-30T05:28:47.599Z,0
2016-11-30T05:29:47.678Z,0
2016-11-30T05:30:47.731Z,0
2016-11-30T05:31:47.770Z,0
2016-11-30T05:32:47.842Z,0
2016-11-30T05:33:47.905Z,0
2016-11-30T05:34:47.940Z,0
2016-11-30T05:35:48.024Z,0
2016-11-30T05:36:48.052Z,0
2016-11-30T05:37:48.122Z,0
2016-11-30T05:38:48.177Z,0
2016-11-30T05:39:48.228Z,0
2016-11-30T05:40:48.287Z,0
2016-11-30T05:41:48.347Z,0
2016-11-30T05:42:48.422Z,0
2016-11-30T05:43:48.440Z,0
2016-11-30T05:44:48.504Z,0
2016-11-30T05:45:48.553Z,0
2016-11-30T05:46:48.623Z,0
2016-11-30T05:47:48.668Z,0
2016-11-30T05:48:48.730Z,0
2016-11-30T05:49:48.787Z,0
2016-11-30T05:50:48.853Z,0
2016-11-30T05:51:48.918Z,0
2016-11-30T05:52:48.982Z,0
2016-11-30T05:53:49.060Z,0
2016-11-30T05:54:49.085Z,0
2016-11-30T05:55:49.140Z,0
2016-11-30T05:56:49.194Z,0
2016-11-30T05:57:49.239Z,0
2016-11-30T05:58:49.295Z,0
2016-11-30T05:59:49.370Z,0
2016-11-30T06:00:49.429Z,0
2016-11-30T06:01:49.474Z,0
2016-11-30T06:02:49.521Z,0
2016-11-30T06:03:49.589Z,0
2016-11-30T06:04:49.625Z,0
2016-11-30T06:05:49.703Z,0
2016-11-30T06:06:49.750Z,0
2016-11-30T06:07:49.818Z,0
2016-11-30T06:08:49.885Z,0
2016-11-30T06:09:49.919Z,0
2016-11-30T06:10:49.977Z,0
2016-11-30T06:11:50.054Z,0
2016-11-30T06:12:50.081Z,0
2016-11-30T06:13:50.157Z,0
2016-11-30T06:14:50.202Z,0
2016-11-30T06:15:50.264Z,0
2016-11-30T06:16:50.308Z,4
2016-11-30T06:17:50.379Z,4
2016-11-30T06:18:50.419Z,0
2016-11-30T06:19:50.487Z,0
2016-11-30T06:20:50.855Z,4
2016-11-30T06:21:50.601Z,4
2016-11-30T06:22:50.659Z,4
2016-11-30T06:23:50.706Z,8
2016-11-30T06:24:50.786Z,4
2016-11-30T06:25:50.825Z,4
2016-11-30T06:26:50.870Z,8
2016-11-30T06:27:50.940Z,8
2016-11-30T06:28:50.985Z,8
2016-11-30T06:29:51.034Z,12
2016-11-30T06:30:51.119Z,12
2016-11-30T06:31:51.170Z,12
2016-11-30T06:32:51.240Z,16
2016-11-30T06:33:51.266Z,16
2016-11-30T06:34:51.355Z,20
2016-11-30T06:35:51.388Z,20
2016-11-30T06:36:51.463Z,24
2016-11-30T06:37:51.504Z,24
2016-11-30T06:38:51.562Z,24
2016-11-30T06:39:51.610Z,24
2016-11-30T06:40:51.688Z,28
2016-11-30T06:41:51.735Z,32
2016-11-30T06:42:51.779Z,32
2016-11-30T06:43:51.863Z,36
2016-11-30T06:44:51.899Z,44
2016-11-30T06:45:51.959Z,56
2016-11-30T06:46:52.009Z,68
2016-11-30T06:47:52.066Z,72
2016-11-30T06:48:52.126Z,72
2016-11-30T06:49:52.185Z,80
2016-11-30T06:50:52.239Z,84
2016-11-30T06:51:52.351Z,96
2016-11-30T06:52:52.358Z,96
2016-11-30T06:53:52.413Z,92
2016-11-30T06:54:52.452Z,84
2016-11-30T06:55:52.538Z,80
2016-11-30T06:56:52.581Z,80
2016-11-30T06:57:52.634Z,84
2016-11-30T06:58:52.691Z,92
2016-11-30T06:59:52.746Z,96
2016-11-30T07:00:52.797Z,104
2016-11-30T07:01:52.896Z,104
2016-11-30T07:02:53.236Z,108
2016-11-30T07:03:52.969Z,112
2016-11-30T07:04:53.026Z,116
2016-11-30T07:05:53.098Z,120
2016-11-30T07:06:53.152Z,124
2016-11-30T07:07:53.202Z,140
2016-11-30T07:08:53.239Z,144
2016-11-30T07:09:53.307Z,156
2016-11-30T07:10:53.357Z,168
2016-11-30T07:11:53.430Z,180
2016-11-30T07:12:53.467Z,208
2016-11-30T07:13:53.540Z,240
2016-11-30T07:14:53.596Z,224
2016-11-30T07:15:53.656Z,196
2016-11-30T07:16:53.693Z,180
2016-11-30T07:17:53.755Z,184
2016-11-30T07:18:53.825Z,236
2016-11-30T07:19:53.877Z,292
2016-11-30T07:20:53.922Z,308
2016-11-30T07:21:53.997Z,260
2016-11-30T07:22:54.045Z,252
2016-11-30T07:23:54.092Z,316
2016-11-30T07:24:54.150Z,348
2016-11-30T07:25:54.207Z,396
2016-11-30T07:26:54.256Z,440
2016-11-30T07:27:54.327Z,468
2016-11-30T07:28:54.387Z,492
2016-11-30T07:29:54.433Z,504
2016-11-30T07:30:54.491Z,516
2016-11-30T07:31:54.533Z,536
2016-11-30T07:32:54.619Z,552
2016-11-30T07:33:54.655Z,552
2016-11-30T07:34:54.732Z,572
2016-11-30T07:35:54.764Z,592
2016-11-30T07:36:54.825Z,564
2016-11-30T07:37:54.896Z,576
2016-11-30T07:38:54.959Z,568
2016-11-30T07:39:55.006Z,572
2016-11-30T07:40:55.065Z,576
2016-11-30T07:41:55.104Z,572
2016-11-30T07:42:55.163Z,584
2016-11-30T07:43:55.232Z,588
2016-11-30T07:44:55.306Z,588
2016-11-30T07:45:55.341Z,572
2016-11-30T07:46:55.390Z,572
2016-11-30T07:47:55.455Z,592
2016-11-30T07:48:55.518Z,616
2016-11-30T07:49:55.580Z,608
2016-11-30T07:50:55.625Z,596
2016-11-30T07:51:55.688Z,616
2016-11-30T07:52:55.763Z,652
2016-11-30T07:53:55.811Z,664
2016-11-30T07:54:55.863Z,680
2016-11-30T07:55:55.917Z,688
2016-11-30T07:56:55.977Z,692
2016-11-30T07:57:56.028Z,692
2016-11-30T07:58:56.088Z,704
2016-11-30T07:59:56.153Z,720
2016-11-30T08:00:56.214Z,736
2016-11-30T08:01:56.281Z,724
2016-11-30T08:02:56.318Z,688
2016-11-30T08:03:56.362Z,672
2016-11-30T08:04:56.416Z,696
2016-11-30T08:05:56.481Z,692
2016-11-30T08:06:56.535Z,688
2016-11-30T08:07:56.606Z,696
2016-11-30T08:08:56.659Z,784
2016-11-30T08:09:56.720Z,796
2016-11-30T08:10:56.760Z,800
2016-11-30T08:11:56.852Z,804
2016-11-30T08:12:56.900Z,808
2016-11-30T08:13:56.939Z,816
2016-11-30T08:14:57.022Z,828
2016-11-30T08:15:57.063Z,836
2016-11-30T08:16:57.120Z,848
2016-11-30T08:17:57.183Z,864
2016-11-30T08:18:57.274Z,872
2016-11-30T08:19:57.290Z,880
2016-11-30T08:20:57.338Z,880
2016-11-30T08:21:57.391Z,888
2016-11-30T08:22:57.439Z,892
2016-11-30T08:23:57.518Z,896
2016-11-30T08:24:57.569Z,900
2016-11-30T08:25:57.646Z,904
2016-11-30T08:26:57.713Z,908
2016-11-30T08:27:57.741Z,908
2016-11-30T08:28:57.803Z,912
2016-11-30T08:29:57.850Z,920
2016-11-30T08:30:57.896Z,924
2016-11-30T08:31:58.167Z,932
2016-11-30T08:32:58.021Z,940
2016-11-30T08:33:58.066Z,944
2016-11-30T08:34:58.143Z,948
2016-11-30T08:35:58.195Z,948
2016-11-30T08:36:58.250Z,952
2016-11-30T08:37:58.331Z,952
2016-11-30T08:38:58.674Z,956
2016-11-30T08:39:58.429Z,956
2016-11-30T08:40:58.491Z,956
2016-11-30T08:41:58.531Z,956
2016-11-30T08:42:58.585Z,956
2016-11-30T08:43:58.659Z,956
2016-11-30T08:44:58.723Z,956
2016-11-30T08:45:58.767Z,948
2016-11-30T08:46:58.825Z,924
2016-11-30T08:47:58.883Z,936
2016-11-30T08:48:58.944Z,940
2016-11-30T08:49:59.307Z,944
2016-11-30T08:50:59.053Z,948
2016-11-30T08:51:59.125Z,940
2016-11-30T08:52:59.174Z,964
2016-11-30T08:53:59.544Z,972
2016-11-30T08:54:59.271Z,980
2016-11-30T08:55:59.339Z,1028
2016-11-30T08:56:59.385Z,992
2016-11-30T08:57:59.468Z,996
2016-11-30T08:58:59.708Z,996
2016-11-30T08:59:59.748Z,1012
2016-11-30T09:00:59.634Z,1008
2016-11-30T09:01:59.709Z,1004
2016-11-30T09:02:59.753Z,1008
2016-11-30T09:03:59.796Z,1008
2016-11-30T09:04:59.854Z,1008
2016-11-30T09:05:59.918Z,1012
2016-11-30T09:06:59.963Z,1012
2016-11-30T09:08:00.023Z,1008
2016-11-30T09:09:00.077Z,1012
2016-11-30T09:10:00.151Z,1008
2016-11-30T09:11:00.231Z,1012
2016-11-30T09:12:00.286Z,1016
2016-11-30T09:13:00.346Z,1020
2016-11-30T09:14:00.391Z,1028
2016-11-30T09:15:00.447Z,1028
2016-11-30T09:16:00.498Z,1036
2016-11-30T09:19:00.688Z,1012
2016-11-30T09:20:00.715Z,1016
2016-11-30T09:21:00.805Z,1016
2016-11-30T09:22:00.836Z,1008
2016-11-30T09:23:00.889Z,1036
2016-11-30T09:24:00.956Z,1016
2016-11-30T09:25:01.044Z,1016
2016-11-30T09:26:01.070Z,1004
2016-11-30T09:27:01.332Z,1004
2016-11-30T09:28:01.380Z,1024
2016-11-30T09:29:07.114Z,1032
2016-11-30T09:30:01.297Z,1068
2016-11-30T09:31:01.374Z,1060
2016-11-30T09:32:01.417Z,1060
2016-11-30T09:33:01.485Z,1060
2016-11-30T09:34:01.540Z,1068
2016-11-30T09:35:01.611Z,1072
2016-11-30T09:36:01.678Z,1084
2016-11-30T09:37:01.728Z,1092
2016-11-30T09:38:01.778Z,1104
2016-11-30T09:39:01.840Z,1100
2016-11-30T09:40:01.899Z,1104
2016-11-30T09:41:01.962Z,1112
2016-11-30T09:42:02.001Z,1144
2016-11-30T09:43:02.057Z,1148
2016-11-30T09:44:02.099Z,1140
2016-11-30T09:45:02.155Z,1196
2016-11-30T09:46:02.232Z,1160
2016-11-30T09:47:02.292Z,1164
2016-11-30T09:48:02.360Z,1168
2016-11-30T09:49:02.405Z,1224
2016-11-30T09:50:02.443Z,1184
2016-11-30T09:51:02.525Z,1196
2016-11-30T09:52:02.568Z,1196
2016-11-30T09:53:02.647Z,1208
2016-11-30T09:54:02.878Z,1212
2016-11-30T09:55:02.931Z,1220
2016-11-30T09:56:02.796Z,1232
2016-11-30T09:57:02.841Z,1248
2016-11-30T09:58:02.922Z,1248
2016-11-30T09:59:02.962Z,1252
2016-11-30T10:00:03.040Z,1268
2016-11-30T10:01:03.076Z,1272
2016-11-30T10:02:03.437Z,1280
2016-11-30T10:03:03.190Z,1284
2016-11-30T10:04:03.261Z,1292
2016-11-30T10:05:03.303Z,1300
2016-11-30T10:06:03.376Z,1312
2016-11-30T10:07:03.425Z,1312
2016-11-30T10:08:03.476Z,1316
2016-11-30T10:09:03.552Z,1336
2016-11-30T10:10:03.587Z,1324
2016-11-30T10:11:03.669Z,1340
2016-11-30T10:12:03.713Z,1336
2016-11-30T10:13:03.769Z,1336
2016-11-30T10:14:03.811Z,1344
2016-11-30T10:15:03.899Z,1352
2016-11-30T10:16:03.926Z,1360
2016-11-30T10:17:03.985Z,1364
2016-11-30T10:18:04.071Z,1360
2016-11-30T10:19:04.106Z,1368
2016-11-30T10:20:04.172Z,1372
2016-11-30T10:21:04.219Z,1376
2016-11-30T10:22:04.481Z,1380
2016-11-30T10:23:04.327Z,1380
2016-11-30T10:24:04.635Z,1388
2016-11-30T10:25:04.468Z,1392
2016-11-30T10:26:04.515Z,1392
2016-11-30T10:27:04.617Z,1396
2016-11-30T10:28:04.634Z,1396
2016-11-30T10:29:04.697Z,1404
2016-11-30T10:30:04.741Z,1404
2016-11-30T10:31:04.824Z,1412
2016-11-30T10:32:04.879Z,1412
2016-11-30T10:33:04.906Z,1412
2016-11-30T10:34:04.972Z,1412
2016-11-30T10:35:05.033Z,1416
2016-11-30T10:36:05.099Z,1420
2016-11-30T10:37:05.250Z,1424
2016-11-30T10:38:05.208Z,1428
2016-11-30T10:39:05.261Z,1428
2016-11-30T10:40:05.330Z,1432
2016-11-30T10:41:05.391Z,1432
2016-11-30T10:42:05.450Z,1432
2016-11-30T10:43:05.481Z,1436
2016-11-30T10:44:05.531Z,1436
2016-11-30T10:45:05.594Z,1440
2016-11-30T10:46:05.666Z,1444
2016-11-30T10:47:05.702Z,1440
2016-11-30T10:48:05.783Z,1440
2016-11-30T10:49:05.829Z,1436
2016-11-30T10:50:05.888Z,1436
2016-11-30T10:51:05.948Z,1436
2016-11-30T10:52:05.987Z,1440
2016-11-30T10:53:06.055Z,1440
2016-11-30T10:54:06.137Z,1444
2016-11-30T10:55:06.176Z,1444
2016-11-30T10:56:06.239Z,1452
2016-11-30T10:57:06.285Z,1452
2016-11-30T10:58:06.355Z,1456
2016-11-30T10:59:06.399Z,1456
2016-11-30T11:00:06.465Z,1460
2016-11-30T11:01:06.527Z,1460
2016-11-30T11:02:06.586Z,1460
2016-11-30T11:03:06.649Z,1468
2016-11-30T11:04:06.681Z,1472
2016-11-30T11:05:06.749Z,1484
2016-11-30T11:06:06.810Z,1488
2016-11-30T11:07:06.864Z,1500
2016-11-30T11:08:06.939Z,1500
2016-11-30T11:09:07.025Z,1508
2016-11-30T11:10:07.038Z,1516
2016-11-30T11:11:07.095Z,1524
2016-11-30T11:12:07.172Z,1528
2016-11-30T11:13:07.206Z,1540
2016-11-30T11:14:07.281Z,1544
2016-11-30T11:15:07.331Z,1556
2016-11-30T11:16:07.410Z,1560
2016-11-30T11:17:07.437Z,1564
2016-11-30T11:18:07.516Z,1568
2016-11-30T11:19:07.544Z,1576
2016-11-30T11:20:07.625Z,1584
2016-11-30T11:21:07.675Z,1592
2016-11-30T11:22:07.743Z,1600
2016-11-30T11:23:07.790Z,1608
2016-11-30T11:24:07.864Z,1616
2016-11-30T11:25:07.903Z,1648
2016-11-30T11:26:08.289Z,1652
2016-11-30T11:27:08.018Z,1652
2016-11-30T11:28:08.084Z,1668
2016-11-30T11:29:08.132Z,1680
2016-11-30T11:30:08.177Z,1692
2016-11-30T11:31:08.247Z,1704
2016-11-30T11:32:08.291Z,1716
2016-11-30T11:33:08.364Z,1752
2016-11-30T11:34:08.423Z,1820
2016-11-30T11:35:08.469Z,1900
2016-11-30T11:36:08.540Z,1984
2016-11-30T11:37:08.589Z,2044
2016-11-30T11:38:08.634Z,2072
2016-11-30T11:39:08.694Z,2100
2016-11-30T11:40:08.765Z,2124
2016-11-30T11:41:08.801Z,2184
2016-11-30T11:42:08.898Z,2316
2016-11-30T11:43:08.946Z,2388
2016-11-30T11:44:08.976Z,2552
2016-11-30T11:45:09.058Z,2588
2016-11-30T11:46:09.112Z,2956
2016-11-30T11:47:09.164Z,3104
2016-11-30T11:48:09.206Z,3184
2016-11-30T11:49:09.276Z,3264
2016-11-30T11:50:09.361Z,3376
2016-11-30T11:51:09.395Z,3176
2016-11-30T11:52:09.450Z,3228
2016-11-30T11:53:09.518Z,2916
2016-11-30T11:54:09.565Z,2960
2016-11-30T11:55:09.639Z,2732
2016-11-30T11:56:09.679Z,2372
2016-11-30T11:57:09.738Z,2408
2016-11-30T11:58:09.798Z,2404
2016-11-30T11:59:09.838Z,2276
2016-11-30T12:00:09.920Z,2240
2016-11-30T12:01:09.974Z,2152
2016-11-30T12:02:10.023Z,2060
2016-11-30T12:03:10.084Z,1780
2016-11-30T12:04:10.149Z,1560
2016-11-30T12:05:10.205Z,1368
2016-11-30T12:06:10.276Z,1308
2016-11-30T12:07:10.646Z,1252
2016-11-30T12:08:10.382Z,1376
2016-11-30T12:09:10.438Z,1456
2016-11-30T12:10:10.487Z,1684
2016-11-30T12:11:10.541Z,1688
2016-11-30T12:12:10.636Z,1764
2016-11-30T12:13:10.648Z,1780
2016-11-30T12:14:10.729Z,1884
2016-11-30T12:15:10.773Z,1876
2016-11-30T12:16:10.846Z,1844
2016-11-30T12:17:10.913Z,1864
2016-11-30T12:18:10.971Z,1896
2016-11-30T12:19:11.128Z,1928
2016-11-30T12:20:11.051Z,1952
2016-11-30T12:21:11.122Z,1872
2016-11-30T12:22:11.501Z,1932
2016-11-30T12:23:11.240Z,1928
2016-11-30T12:24:11.298Z,1920
2016-11-30T12:25:11.345Z,1900
2016-11-30T12:26:11.420Z,1928
2016-11-30T12:27:11.493Z,1936
2016-11-30T12:28:11.515Z,1928
2016-11-30T12:29:11.585Z,1920
2016-11-30T12:30:11.625Z,1940
2016-11-30T12:31:11.700Z,1940
2016-11-30T12:32:11.775Z,1944
2016-11-30T12:33:11.806Z,1940
2016-11-30T12:34:11.858Z,1936
2016-11-30T12:35:11.929Z,1936
2016-11-30T12:36:11.973Z,1932
2016-11-30T12:37:12.061Z,1916
2016-11-30T12:38:12.141Z,1904
2016-11-30T12:39:12.167Z,1880
2016-11-30T12:40:12.203Z,1860
2016-11-30T12:41:12.322Z,1848
2016-11-30T12:42:12.346Z,1824
2016-11-30T12:43:12.414Z,1828
2016-11-30T12:44:12.470Z,1808
2016-11-30T12:45:12.527Z,1760
2016-11-30T12:46:12.578Z,1732
2016-11-30T12:47:12.639Z,1748
2016-11-30T12:48:12.696Z,1828
2016-11-30T12:49:12.744Z,1840
2016-11-30T12:50:12.815Z,1848
2016-11-30T12:51:12.869Z,1844
2016-11-30T12:52:12.905Z,1832
2016-11-30T12:53:13.001Z,1820
2016-11-30T12:54:13.028Z,1804
2016-11-30T12:55:13.090Z,1784
2016-11-30T12:56:13.128Z,1748
2016-11-30T12:57:13.213Z,1740
2016-11-30T12:58:13.264Z,1732
2016-11-30T12:59:13.330Z,1740
2016-11-30T13:00:13.370Z,1748
2016-11-30T13:01:13.418Z,1776
2016-11-30T13:02:13.492Z,1772
2016-11-30T13:03:13.569Z,1744
2016-11-30T13:04:13.627Z,1716
2016-11-30T13:05:13.684Z,1724
2016-11-30T13:06:13.729Z,1704
2016-11-30T13:07:13.799Z,1688
2016-11-30T13:08:13.822Z,1720
2016-11-30T13:09:13.884Z,1768
2016-11-30T13:10:13.965Z,1820
2016-11-30T13:11:13.995Z,1896
2016-11-30T13:12:14.080Z,1972
2016-11-30T13:13:14.131Z,1924
2016-11-30T13:14:14.179Z,1908
2016-11-30T13:15:14.237Z,1820
2016-11-30T13:16:14.292Z,2068
2016-11-30T13:17:14.338Z,1612
2016-11-30T13:18:14.411Z,1520
2016-11-30T13:19:14.472Z,1456
2016-11-30T13:20:14.728Z,1452
2016-11-30T13:21:14.582Z,1448
2016-11-30T13:22:14.634Z,1484
2016-11-30T13:23:14.715Z,1388
2016-11-30T13:24:14.756Z,1400
2016-11-30T13:25:14.858Z,1304
2016-11-30T13:26:14.867Z,1076
2016-11-30T13:27:14.923Z,1012
2016-11-30T13:28:14.995Z,1008
2016-11-30T13:29:15.061Z,1048
2016-11-30T13:30:15.108Z,988
2016-11-30T13:31:15.171Z,1120
2016-11-30T13:32:15.214Z,1200
2016-11-30T13:33:15.588Z,1280
2016-11-30T13:34:15.348Z,1328
2016-11-30T13:35:15.385Z,1280
2016-11-30T13:36:15.472Z,1260
2016-11-30T13:37:15.522Z,1248
2016-11-30T13:38:15.558Z,1268
2016-11-30T13:39:15.615Z,1260
2016-11-30T13:40:15.660Z,1336
2016-11-30T13:41:15.751Z,1368
2016-11-30T13:42:16.086Z,1388
2016-11-30T13:43:15.856Z,1396
2016-11-30T13:44:15.909Z,1400
2016-11-30T13:45:15.966Z,1404
2016-11-30T13:46:16.006Z,1492
2016-11-30T13:47:16.087Z,1400
2016-11-30T13:48:16.127Z,1352
2016-11-30T13:49:16.194Z,1368
2016-11-30T13:50:16.245Z,1372
2016-11-30T13:51:16.324Z,1368
2016-11-30T13:52:16.364Z,1356
2016-11-30T13:53:16.418Z,1372
2016-11-30T13:54:16.469Z,1392
2016-11-30T13:55:16.518Z,1364
2016-11-30T13:56:16.588Z,1332
2016-11-30T13:57:16.635Z,1220
2016-11-30T13:58:16.701Z,1156
2016-11-30T13:59:16.761Z,832
2016-11-30T14:00:16.797Z,600
2016-11-30T14:01:16.868Z,524
2016-11-30T14:02:16.916Z,520
2016-11-30T14:03:16.992Z,512
2016-11-30T14:04:17.032Z,504
2016-11-30T14:05:17.105Z,492
2016-11-30T14:06:17.149Z,480